createdAt,value
2023-04-26T00:00:09.362Z,6.30
2023-04-26T00:02:36.753Z,13.80
2023-04-26T00:05:05.438Z,5.90
2023-04-26T00:07:32.777Z,7.10
2023-04-26T00:10:00.063Z,5.50
2023-04-26T00:12:27.303Z,4.60
2023-04-26T00:14:54.461Z,8.60
2023-04-26T00:17:21.500Z,6.30
2023-04-26T00:19:48.673Z,6.60
2023-04-26T00:22:15.711Z,7.10
2023-04-26T00:24:43.706Z,11.90
2023-04-26T00:27:11.024Z,9.10
2023-04-26T00:29:38.286Z,6.20
2023-04-26T00:39:42.057Z,9.80
2023-04-26T00:42:08.957Z,7.90
2023-04-26T00:44:36.638Z,6.00
2023-04-26T00:47:03.875Z,8.40
2023-04-26T00:49:31.298Z,7.10
2023-04-26T00:51:58.376Z,8.70
2023-04-26T00:54:25.900Z,5.10
2023-04-26T00:56:53.496Z,5.10
2023-04-26T00:59:21.464Z,5.60
2023-04-26T01:01:49.410Z,11.20
2023-04-26T01:04:17.067Z,12.50
2023-04-26T01:06:47.171Z,9.40
2023-04-26T01:16:59.148Z,9.20
2023-04-26T01:19:26.296Z,10.50
2023-04-26T01:21:53.209Z,5.20
2023-04-26T01:24:21.635Z,6.10
2023-04-26T01:26:48.791Z,6.60
2023-04-26T01:29:18.176Z,7.40
2023-04-26T01:31:46.291Z,7.00
2023-04-26T01:34:13.810Z,12.10
2023-04-26T01:36:41.162Z,9.00
2023-04-26T01:39:11.289Z,5.20
2023-04-26T01:41:38.327Z,9.30
2023-04-26T01:44:05.696Z,6.40
2023-04-26T01:46:36.083Z,10.50
2023-04-26T01:49:03.258Z,8.60
2023-04-26T01:51:30.348Z,8.70
2023-04-26T01:53:57.257Z,8.50
2023-04-26T01:56:26.146Z,12.00
2023-04-26T01:58:55.661Z,7.60
2023-04-26T02:01:23.905Z,7.90
2023-04-26T02:03:53.846Z,11.80
2023-04-26T02:06:21.943Z,12.70
2023-04-26T02:08:49.796Z,7.00
2023-04-26T02:11:17.064Z,8.80
2023-04-26T02:13:44.279Z,7.40
2023-04-26T02:16:11.560Z,10.90
2023-04-26T02:18:39.210Z,13.10
2023-04-26T02:21:09.071Z,8.20
2023-04-26T02:23:36.260Z,6.90
2023-04-26T02:26:03.395Z,6.50
2023-04-26T02:28:31.687Z,9.10
2023-04-26T02:30:59.055Z,7.80
2023-04-26T02:33:26.286Z,17.40
2023-04-26T02:35:53.326Z,9.40
2023-04-26T02:38:20.903Z,9.60
2023-04-26T02:40:48.164Z,10.50
2023-04-26T02:43:16.243Z,7.90
2023-04-26T02:45:43.495Z,10.50
2023-04-26T02:48:12.084Z,6.00
2023-04-26T02:50:39.242Z,5.80
2023-04-26T02:53:06.560Z,12.20
2023-04-26T02:55:33.804Z,7.80
2023-04-26T02:58:01.044Z,7.20
2023-04-26T03:00:28.797Z,7.60
2023-04-26T03:02:57.241Z,8.50
2023-04-26T03:05:24.878Z,9.00
2023-04-26T03:07:52.823Z,8.80
2023-04-26T03:10:19.952Z,12.60
2023-04-26T03:12:47.136Z,10.00
2023-04-26T03:15:15.596Z,9.70
2023-04-26T03:17:43.477Z,6.20
2023-04-26T03:20:11.849Z,9.60
2023-04-26T03:22:39.512Z,8.80
2023-04-26T03:25:08.109Z,6.40
2023-04-26T03:27:35.236Z,8.00
2023-04-26T03:30:02.329Z,13.90
2023-04-26T03:32:30.144Z,5.70
2023-04-26T03:34:57.435Z,11.90
2023-04-26T03:37:24.872Z,15.90
2023-04-26T03:39:57.643Z,8.60
2023-04-26T03:42:24.911Z,5.40
2023-04-26T03:44:52.037Z,9.40
2023-04-26T03:47:19.095Z,12.40
2023-04-26T03:49:46.243Z,14.40
2023-04-26T03:52:13.151Z,9.10
2023-04-26T03:54:40.134Z,13.70
2023-04-26T03:57:07.310Z,8.60
2023-04-26T03:59:35.170Z,9.40
2023-04-26T04:02:02.196Z,12.10
2023-04-26T04:04:31.443Z,21.60
2023-04-26T04:06:59.659Z,10.70
2023-04-26T04:09:26.835Z,10.80
2023-04-26T04:11:57.861Z,10.00
2023-04-26T04:14:25.718Z,14.40
2023-04-26T04:16:52.865Z,9.10
2023-04-26T04:19:20.116Z,11.80
2023-04-26T04:21:47.808Z,9.00
2023-04-26T04:32:15.402Z,6.80
2023-04-26T04:34:47.723Z,13.10
2023-04-26T04:42:15.568Z,13.50
2023-04-26T04:44:43.146Z,10.80
2023-04-26T04:47:10.580Z,11.60
2023-04-26T04:49:38.675Z,10.00
2023-04-26T04:52:09.784Z,8.80
2023-04-26T04:54:37.023Z,13.20
2023-04-26T04:57:04.103Z,13.10
2023-04-26T04:59:33.933Z,11.10
2023-04-26T05:02:22.186Z,13.90
2023-04-26T05:04:52.629Z,14.20
2023-04-26T05:07:19.646Z,18.20
2023-04-26T05:09:46.772Z,15.80
2023-04-26T05:12:18.111Z,18.20
2023-04-26T05:15:08.146Z,10.10
2023-04-26T05:17:35.557Z,22.90
2023-04-26T05:20:12.748Z,19.10
2023-04-26T05:22:40.231Z,17.40
2023-04-26T05:25:15.228Z,20.60
2023-04-26T05:27:42.908Z,20.50
2023-04-26T05:30:21.247Z,19.80
2023-04-26T05:33:23.795Z,19.10
2023-04-26T05:35:58.622Z,26.20
2023-04-26T05:38:25.801Z,13.90
2023-04-26T05:40:53.507Z,19.40
2023-04-26T05:43:20.890Z,16.10
2023-04-26T05:45:56.302Z,18.70
2023-04-26T05:48:24.921Z,24.30
2023-04-26T05:50:52.392Z,19.30
2023-04-26T05:53:19.931Z,22.30
2023-04-26T05:55:48.324Z,21.00
2023-04-26T05:58:16.127Z,29.50
2023-04-26T06:00:46.586Z,17.30
2023-04-26T06:03:13.943Z,16.70
2023-04-26T06:06:04.271Z,20.10
2023-04-26T06:08:34.623Z,19.30
2023-04-26T06:11:03.038Z,20.70
2023-04-26T06:13:32.135Z,14.40
2023-04-26T06:15:59.775Z,23.80
2023-04-26T06:19:06.993Z,28.50
2023-04-26T06:21:35.926Z,34.60
2023-04-26T06:24:04.002Z,28.60
2023-04-26T06:26:32.539Z,41.80
2023-04-26T06:28:59.697Z,20.40
2023-04-26T06:31:26.894Z,19.90
2023-04-26T06:33:54.501Z,15.60
2023-04-26T06:36:44.066Z,18.40
2023-04-26T06:39:12.065Z,18.50
2023-04-26T06:41:41.893Z,14.80
2023-04-26T06:44:10.118Z,15.30
2023-04-26T06:46:42.052Z,21.50
2023-04-26T06:49:10.616Z,27.70
2023-04-26T06:51:37.650Z,13.60
2023-04-26T06:54:05.488Z,15.70
2023-04-26T06:56:32.641Z,13.50
2023-04-26T06:59:20.302Z,15.90
2023-04-26T07:01:47.553Z,15.10
2023-04-26T07:04:17.377Z,12.40
2023-04-26T07:06:45.562Z,14.90
2023-04-26T07:09:13.679Z,20.90
2023-04-26T07:11:40.824Z,16.50
2023-04-26T07:14:08.262Z,13.70
2023-04-26T07:16:39.656Z,17.90
2023-04-26T07:19:11.328Z,14.40
2023-04-26T07:21:39.807Z,11.00
2023-04-26T07:24:07.038Z,17.40
2023-04-26T07:26:36.463Z,10.80
2023-04-26T07:29:04.121Z,15.90
2023-04-26T07:31:35.940Z,12.90
2023-04-26T07:34:02.923Z,20.30
2023-04-26T07:36:32.996Z,15.50
2023-04-26T07:39:00.041Z,17.50
2023-04-26T07:41:27.299Z,17.30
2023-04-26T07:43:57.097Z,16.30
2023-04-26T07:46:25.632Z,19.90
2023-04-26T07:48:52.721Z,19.60
2023-04-26T07:51:21.142Z,16.90
2023-04-26T07:53:48.781Z,21.10
2023-04-26T07:56:15.775Z,17.00
2023-04-26T07:58:42.816Z,14.90
2023-04-26T08:01:11.826Z,18.00
2023-04-26T08:03:39.176Z,20.50
2023-04-26T08:06:27.976Z,19.70
2023-04-26T08:08:55.438Z,21.90
2023-04-26T08:11:26.898Z,25.80
2023-04-26T08:13:54.490Z,19.80
2023-04-26T08:16:25.247Z,28.90
2023-04-26T08:18:52.431Z,21.80
2023-04-26T08:21:19.850Z,21.90
2023-04-26T08:23:46.914Z,31.90
2023-04-26T08:26:13.791Z,21.30
2023-04-26T08:28:41.093Z,23.30
2023-04-26T08:31:08.422Z,30.90
2023-04-26T08:38:32.674Z,22.80
2023-04-26T11:25:42.503Z,20.50
2023-04-26T11:28:09.650Z,13.20
2023-04-26T11:30:36.589Z,12.20
2023-04-26T11:33:27.890Z,13.30
2023-04-26T11:35:58.145Z,17.70
2023-04-26T11:38:48.832Z,10.00
2023-04-26T11:41:15.877Z,15.90
2023-04-26T11:43:43.102Z,10.40
2023-04-26T11:46:10.505Z,8.00
2023-04-26T11:48:38.881Z,12.60
2023-04-26T11:51:07.869Z,8.20
2023-04-26T11:53:54.492Z,7.70
2023-04-26T11:56:23.209Z,3.80
2023-04-26T11:58:52.173Z,6.60
2023-04-26T12:01:30.153Z,2.20
2023-04-26T12:03:59.831Z,4.40
2023-04-26T12:07:10.530Z,4.50
2023-04-26T12:09:42.247Z,3.80
2023-04-26T12:12:09.107Z,3.10
2023-04-26T12:14:57.448Z,2.70
2023-04-26T12:17:24.728Z,1.00
2023-04-26T12:19:51.930Z,0.60
2023-04-26T12:22:21.415Z,0.90
2023-04-26T12:24:48.994Z,1.40
2023-04-26T12:27:42.669Z,0.60
2023-04-26T12:30:11.213Z,1.00
2023-04-26T12:32:41.967Z,0.50
2023-04-26T12:35:10.020Z,2.10
2023-04-26T12:37:38.072Z,2.10
2023-04-26T12:40:07.408Z,1.30
2023-04-26T12:42:34.461Z,1.20
2023-04-26T12:45:01.538Z,4.60
2023-04-26T12:47:28.735Z,0.60
2023-04-26T12:49:56.612Z,0.70
2023-04-26T12:52:24.869Z,1.00
2023-04-26T12:54:52.308Z,1.20
2023-04-26T12:57:21.229Z,0.90
2023-04-26T12:59:48.760Z,0.60
2023-04-26T13:02:36.429Z,0.30
2023-04-26T13:05:04.743Z,0.50
2023-04-26T13:07:36.895Z,0.20
2023-04-26T13:10:24.231Z,1.00
2023-04-26T13:12:53.992Z,0.40
2023-04-26T13:15:21.881Z,0.30
2023-04-26T13:17:48.902Z,0.30
2023-04-26T13:20:15.995Z,1.20
2023-04-26T13:22:43.791Z,2.60
2023-04-26T13:25:11.352Z,1.60
2023-04-26T13:27:41.337Z,3.00
2023-04-26T13:30:09.065Z,4.00
2023-04-26T13:32:36.442Z,2.30
2023-04-26T13:39:55.491Z,3.80
2023-04-26T13:56:10.784Z,0.80
2023-04-26T19:46:16.107Z,7.60
2023-04-26T20:02:31.281Z,2.60
2023-04-26T20:09:25.171Z,2.30
2023-04-26T20:42:06.340Z,4.20
2023-04-26T20:44:33.224Z,2.20
2023-04-26T20:47:00.349Z,7.20
2023-04-26T20:49:28.545Z,4.80
2023-04-26T20:51:56.298Z,3.50
2023-04-26T20:54:23.288Z,3.20
2023-04-26T20:56:50.278Z,2.70
2023-04-26T20:59:17.202Z,3.30
2023-04-26T21:01:44.223Z,8.50
2023-04-26T21:04:11.380Z,5.20
2023-04-26T21:06:38.819Z,4.60
2023-04-26T21:09:05.705Z,2.50
2023-04-26T21:11:32.762Z,2.60
2023-04-26T21:13:59.597Z,3.20
2023-04-26T21:16:26.580Z,2.10
2023-04-26T21:18:53.485Z,4.30
2023-04-26T21:21:20.520Z,3.00
2023-04-26T21:23:47.497Z,2.50
2023-04-26T21:26:17.323Z,2.70
2023-04-26T21:28:44.195Z,2.40
2023-04-26T21:31:11.766Z,9.20
